Overview Statistics Trail Chart Weather Telemetry Raw packets
 

This is the latest recevied weather packets stored in our database for station/object PA3FNT-13. If no packets are shown the sender has not sent any weather packets the latest 10 day(s).

<< 14 15 16 17 18 19 20 >>
Time Temp. Humidity Pressure Rain* Wind** Luminosity Snow
1787853654 29.44° C 44% 1009.3 hPa - - - -
1787852753 30° C 43% 1009.3 hPa - - - -
1787851853 29.44° C 43% 1009.2 hPa - - - -
1787850953 29.44° C 43% 1009.1 hPa - - - -
1787850053 29.44° C 43% 1009.3 hPa - - - -
1787849152 29.44° C 43% 1009.4 hPa - - - -
1787848252 30° C 42% 1009.5 hPa - - - -
1787847352 30.56° C 41% 1009.6 hPa - - - -
1787846452 30° C 43% 1009.8 hPa - - - -
1787845552 29.44° C 44% 1009.8 hPa - - - -
1787844652 29.44° C 43% 1009.7 hPa - - - -
1787843751 29.44° C 43% 1009.8 hPa - - - -
1787842851 28.89° C 43% 1009.9 hPa - - - -
1787841951 28.89° C 43% 1009.7 hPa - - - -
1787841051 29.44° C 42% 1009.9 hPa - - - -
1787840152 30° C 40% 1010 hPa - - - -
1787839251 31.67° C 37% 1010.1 hPa - - - -
1787838350 30.56° C 40% 1010.3 hPa - - - -
1787837449 29.44° C 41% 1010.4 hPa - - - -
1787836549 28.89° C 42% 1010.2 hPa - - - -
1787835649 28.89° C 42% 1010.2 hPa - - - -
1787834749 28.89° C 41% 1010.4 hPa - - - -
1787833849 30.56° C 38% 1010.4 hPa - - - -
1787832949 28.33° C 41% 1010.5 hPa - - - -
1787832048 28.33° C 41% 1010.8 hPa - - - -

* Rain since midnight (hover to see other rain measurements)
** Current wind speed in m/s (hover to see current wind gust speed)